Time;durP1;ratioP1;P1;durP2;ratioP2;P2;SDS_P1;SDS_P2;PMS_P1;PMS_P2;Temp;Humidity;BMP_temperature;BMP_pressure;BME280_temperature;BME280_humidity;BME280_pressure;Samples;Min_cycle;Max_cycle;Signal;HPM_P1;HPM_P2
2021/07/21 00:00:09;;;;;;;10.97;6.53;;;18.60;1.00;;;;;;5031591;28;20315;-49
2021/07/21 00:02:36;;;;;;;12.13;6.37;;;18.50;1.00;;;;;;5033186;28;20204;-51
2021/07/21 00:05:07;;;;;;;10.63;6.37;;;18.50;1.00;;;;;;5034413;28;20513;-50
2021/07/21 00:07:34;;;;;;;8.73;6.47;;;18.50;1.00;;;;;;5033670;28;20245;-49
2021/07/21 00:10:03;;;;;;;8.13;6.37;;;18.50;1.00;;;;;;5032602;28;20666;-49
2021/07/21 00:15:15;;;;;;;10.93;7.10;;;18.40;1.00;;;;;;5031413;28;20211;-49
2021/07/21 00:17:44;;;;;;;11.17;6.50;;;18.40;1.00;;;;;;5030336;28;20239;-49
2021/07/21 00:20:12;;;;;;;8.77;6.80;;;18.30;1.00;;;;;;5031202;28;20709;-49
2021/07/21 00:22:44;;;;;;;10.63;7.07;;;18.30;1.00;;;;;;5032483;28;20290;-50
2021/07/21 00:25:13;;;;;;;10.83;6.93;;;18.20;1.00;;;;;;5031143;28;20518;-49
2021/07/21 00:27:42;;;;;;;12.50;7.60;;;18.20;1.00;;;;;;5032685;28;20327;-49
2021/07/21 00:30:12;;;;;;;23.77;12.43;;;18.10;1.00;;;;;;5031388;28;20707;-49
2021/07/21 00:32:39;;;;;;;17.33;10.93;;;18.20;1.00;;;;;;5035540;28;20394;-49
2021/07/21 00:35:08;;;;;;;13.30;8.93;;;18.20;1.00;;;;;;5032776;28;20643;-51
2021/07/21 00:37:36;;;;;;;13.53;7.13;;;18.20;1.00;;;;;;5035523;28;20651;-49
2021/07/21 00:40:04;;;;;;;12.17;7.07;;;18.20;1.00;;;;;;5036084;28;20459;-49
2021/07/21 00:42:31;;;;;;;13.23;7.43;;;18.10;1.00;;;;;;5032133;28;20343;-49
2021/07/21 00:44:58;;;;;;;11.77;6.90;;;18.10;1.00;;;;;;5030409;28;20723;-50
2021/07/21 00:47:25;;;;;;;14.83;8.17;;;18.10;1.00;;;;;;5033505;28;20210;-49
2021/07/21 00:49:52;;;;;;;11.30;7.43;;;18.10;1.00;;;;;;5034576;28;20291;-49
2021/07/21 00:52:18;;;;;;;11.77;7.23;;;18.00;1.00;;;;;;5032657;28;20704;-49
2021/07/21 00:54:46;;;;;;;12.60;7.83;;;18.00;1.00;;;;;;5030955;28;20314;-51
2021/07/21 00:57:13;;;;;;;11.47;7.13;;;18.00;1.00;;;;;;5034910;28;20298;-49
2021/07/21 00:59:42;;;;;;;12.13;7.20;;;18.00;1.00;;;;;;5037471;28;20311;-49
2021/07/21 01:02:09;;;;;;;13.03;8.30;;;18.00;1.00;;;;;;5036219;28;20573;-49
2021/07/21 01:04:38;;;;;;;10.70;7.13;;;17.90;1.00;;;;;;5033362;28;20644;-49
2021/07/21 01:07:07;;;;;;;13.27;8.20;;;17.90;1.00;;;;;;5032445;28;20553;-49
2021/07/21 01:09:38;;;;;;;12.87;7.57;;;17.80;1.00;;;;;;5032687;28;20223;-51
2021/07/21 01:12:47;;;;;;;10.70;7.37;;;17.80;1.00;;;;;;5033112;28;20257;-49
2021/07/21 01:15:39;;;;;;;11.53;7.37;;;17.80;1.00;;;;;;5029807;28;20286;-49
2021/07/21 01:18:16;;;;;;;12.13;7.63;;;17.80;1.00;;;;;;5033550;28;20294;-49
2021/07/21 01:21:35;;;;;;;13.73;8.10;;;17.80;1.00;;;;;;5033422;28;20298;-49
2021/07/21 01:24:34;;;;;;;13.20;7.93;;;17.80;1.00;;;;;;5030088;28;20302;-49
2021/07/21 01:27:13;;;;;;;14.07;7.77;;;17.70;1.00;;;;;;5032062;28;20296;-49
2021/07/21 01:29:43;;;;;;;15.20;8.23;;;17.70;1.00;;;;;;5032296;28;20295;-48
2021/07/21 01:32:12;;;;;;;11.53;7.83;;;17.70;1.00;;;;;;5030677;28;20742;-49
2021/07/21 01:34:41;;;;;;;12.13;7.20;;;17.70;1.00;;;;;;5031831;28;20293;-49
2021/07/21 01:37:08;;;;;;;12.00;7.80;;;17.70;1.00;;;;;;5029427;28;20291;-50
2021/07/21 01:39:42;;;;;;;11.77;7.97;;;17.60;1.00;;;;;;5032009;28;20239;-49
2021/07/21 01:42:15;;;;;;;12.70;7.87;;;17.60;1.00;;;;;;5031502;28;21472;-51
2021/07/21 01:44:47;;;;;;;15.10;8.27;;;17.50;1.70;;;;;;5033499;28;20208;-49
2021/07/21 01:47:21;;;;;;;13.40;7.50;;;17.50;13.70;;;;;;5026961;28;20232;-49
2021/07/21 01:49:53;;;;;;;11.57;7.87;;;17.40;1.00;;;;;;5034678;28;20292;-49
2021/07/21 01:52:25;;;;;;;14.93;8.03;;;17.40;11.10;;;;;;5030485;28;20204;-49
2021/07/21 01:54:55;;;;;;;14.77;7.83;;;17.40;99.90;;;;;;5033649;28;20318;-50
2021/07/21 01:57:27;;;;;;;11.53;7.90;;;17.40;99.90;;;;;;5031627;28;20296;-50
2021/07/21 01:59:55;;;;;;;11.87;8.20;;;17.40;89.90;;;;;;5034682;28;20397;-50
2021/07/21 02:02:23;;;;;;;11.70;7.90;;;17.40;92.60;;;;;;5035791;28;20287;-49
2021/07/21 02:04:52;;;;;;;16.63;7.47;;;17.50;96.30;;;;;;5034662;28;20290;-50
2021/07/21 02:07:22;;;;;;;14.40;8.47;;;17.50;96.10;;;;;;5034931;28;20610;-49
2021/07/21 02:09:49;;;;;;;14.47;8.97;;;17.50;97.10;;;;;;5033317;28;20714;-49
2021/07/21 02:12:16;;;;;;;11.57;7.40;;;17.50;59.20;;;;;;5031241;28;20709;-49
2021/07/21 02:14:45;;;;;;;11.07;7.87;;;17.60;61.50;;;;;;5032216;28;20632;-49
2021/07/21 02:17:13;;;;;;;10.67;7.60;;;17.50;99.90;;;;;;5027492;28;20847;-49
2021/07/21 02:19:42;;;;;;;11.87;7.73;;;17.50;99.90;;;;;;5031464;28;20208;-49
2021/07/21 02:22:09;;;;;;;11.80;7.40;;;17.40;99.90;;;;;;5032525;28;20392;-49
2021/07/21 02:24:37;;;;;;;14.13;8.13;;;17.40;99.90;;;;;;5030584;28;20243;-49
2021/07/21 02:27:03;;;;;;;13.50;8.43;;;17.30;99.90;;;;;;5031355;28;20333;-48
2021/07/21 02:29:30;;;;;;;11.53;7.47;;;17.40;99.90;;;;;;5029955;28;20295;-49
2021/07/21 02:32:19;;;;;;;12.50;7.47;;;17.30;99.90;;;;;;5031462;28;20324;-49
2021/07/21 02:34:46;;;;;;;11.57;7.63;;;17.20;99.90;;;;;;5029334;28;20293;-49
2021/07/21 02:37:15;;;;;;;15.53;8.77;;;17.30;99.90;;;;;;5028324;28;20642;-49
2021/07/21 02:39:47;;;;;;;12.87;7.80;;;17.30;99.90;;;;;;5030394;28;20381;-49
2021/07/21 02:42:15;;;;;;;13.10;8.07;;;17.30;99.90;;;;;;5031995;28;20396;-49
2021/07/21 02:44:44;;;;;;;10.57;7.70;;;17.20;99.90;;;;;;5030137;28;20200;-49
2021/07/21 02:47:12;;;;;;;14.90;9.03;;;17.30;99.90;;;;;;5031616;28;20258;-49
2021/07/21 02:49:41;;;;;;;12.60;7.90;;;17.20;99.90;;;;;;5032724;28;20200;-49
2021/07/21 02:52:15;;;;;;;14.23;8.53;;;17.20;99.90;;;;;;5030222;28;20298;-50
2021/07/21 02:54:48;;;;;;;14.83;8.13;;;17.20;99.90;;;;;;5031168;28;20655;-49
2021/07/21 02:57:21;;;;;;;13.37;8.67;;;17.20;99.90;;;;;;5037099;28;20547;-49
2021/07/21 02:59:53;;;;;;;12.47;8.57;;;17.20;99.90;;;;;;5033562;28;20590;-49
2021/07/21 03:02:24;;;;;;;14.10;8.87;;;17.20;99.90;;;;;;5035719;28;20295;-49
2021/07/21 03:04:54;;;;;;;13.27;9.80;;;17.20;99.90;;;;;;5035271;28;20200;-49
2021/07/21 03:07:23;;;;;;;14.43;9.03;;;17.20;57.20;;;;;;5038270;28;20243;-50
2021/07/21 03:09:52;;;;;;;11.97;9.33;;;17.20;25.50;;;;;;5031612;28;21073;-49
2021/07/21 03:12:20;;;;;;;15.07;9.10;;;17.10;28.10;;;;;;5034576;28;20648;-49
2021/07/21 03:14:48;;;;;;;14.37;9.43;;;17.00;45.30;;;;;;5032009;28;20219;-49
2021/07/21 03:17:16;;;;;;;15.70;9.57;;;17.00;89.80;;;;;;5032199;28;20219;-50
2021/07/21 03:19:46;;;;;;;13.80;9.40;;;16.90;94.00;;;;;;5034073;28;20302;-49
2021/07/21 03:22:15;;;;;;;14.17;9.10;;;17.00;99.90;;;;;;5035853;28;20318;-49
2021/07/21 03:24:44;;;;;;;15.03;9.87;;;16.90;99.90;;;;;;5033429;28;20536;-50
2021/07/21 03:27:14;;;;;;;14.50;9.90;;;16.90;51.90;;;;;;5035600;28;20703;-52
2021/07/21 03:29:44;;;;;;;16.33;9.53;;;16.80;59.60;;;;;;5033241;28;20315;-49
2021/07/21 03:32:11;;;;;;;12.27;9.03;;;16.80;99.90;;;;;;5033353;28;20323;-48
2021/07/21 03:34:40;;;;;;;11.77;8.77;;;16.80;99.90;;;;;;5034168;28;20204;-51
2021/07/21 03:37:10;;;;;;;15.77;9.23;;;16.80;99.90;;;;;;5033951;28;20612;-51
2021/07/21 03:39:38;;;;;;;17.00;10.53;;;16.80;99.90;;;;;;5034552;28;20204;-51
2021/07/21 03:42:06;;;;;;;14.93;9.43;;;16.80;99.90;;;;;;5033336;28;20212;-51
2021/07/21 03:44:33;;;;;;;14.77;10.20;;;16.80;99.90;;;;;;5032449;28;20676;-51
2021/07/21 03:47:01;;;;;;;16.33;9.47;;;16.80;99.90;;;;;;5030565;28;20375;-51
2021/07/21 03:49:29;;;;;;;13.77;9.53;;;16.80;99.90;;;;;;5035670;28;20227;-51
2021/07/21 03:51:56;;;;;;;14.07;8.60;;;16.70;99.90;;;;;;5032507;28;20326;-51
2021/07/21 03:54:25;;;;;;;13.73;8.63;;;16.80;99.90;;;;;;5032882;28;20238;-51
2021/07/21 03:56:54;;;;;;;12.97;9.03;;;16.90;99.90;;;;;;5033734;28;20235;-51
2021/07/21 03:59:23;;;;;;;12.43;8.90;;;16.90;99.90;;;;;;5036198;28;20235;-50
2021/07/21 04:01:53;;;;;;;16.07;9.70;;;16.80;99.90;;;;;;5032425;28;20319;-50
2021/07/21 04:04:22;;;;;;;14.73;9.33;;;16.80;99.90;;;;;;5030261;28;20711;-50
2021/07/21 04:06:50;;;;;;;14.37;9.73;;;16.80;99.90;;;;;;5030106;28;20536;-51
2021/07/21 04:09:19;;;;;;;16.43;9.50;;;16.80;99.90;;;;;;5036331;28;20304;-51
2021/07/21 04:11:49;;;;;;;14.07;9.40;;;16.80;99.90;;;;;;5033371;28;20227;-51
2021/07/21 04:14:18;;;;;;;18.60;10.43;;;16.80;99.90;;;;;;5034154;28;20306;-51
2021/07/21 04:16:47;;;;;;;15.20;10.10;;;16.70;99.90;;;;;;5034439;28;20204;-51
2021/07/21 04:19:15;;;;;;;13.80;9.97;;;16.70;99.90;;;;;;5032633;28;20307;-52
2021/07/21 04:21:45;;;;;;;14.93;10.40;;;16.70;99.90;;;;;;5034541;28;20318;-51
2021/07/21 04:24:13;;;;;;;16.73;10.93;;;16.70;99.90;;;;;;5030168;28;20754;-51
2021/07/21 04:26:40;;;;;;;14.70;10.43;;;16.70;99.90;;;;;;5032528;28;20198;-51
2021/07/21 04:29:11;;;;;;;17.03;10.50;;;16.70;99.90;;;;;;5030536;28;20314;-52
2021/07/21 04:31:40;;;;;;;15.57;10.13;;;16.80;99.90;;;;;;5032261;28;21121;-51
2021/07/21 04:34:09;;;;;;;14.07;10.07;;;16.70;99.90;;;;;;5032709;28;20212;-51
2021/07/21 04:36:38;;;;;;;14.30;9.93;;;16.80;99.90;;;;;;5033656;28;20535;-51
2021/07/21 04:39:06;;;;;;;16.63;10.07;;;16.80;99.90;;;;;;5029700;28;20227;-51
2021/07/21 04:41:34;;;;;;;13.70;9.60;;;16.80;99.90;;;;;;5032862;28;20957;-51
2021/07/21 04:44:02;;;;;;;15.07;10.97;;;16.80;99.90;;;;;;5031887;28;20307;-51
2021/07/21 04:46:33;;;;;;;15.43;10.23;;;16.80;99.90;;;;;;5034269;28;20570;-51
2021/07/21 04:49:02;;;;;;;18.73;11.07;;;16.90;99.90;;;;;;5034407;28;20276;-51
2021/07/21 04:51:30;;;;;;;16.30;10.47;;;16.90;99.90;;;;;;5034615;28;21071;-51
2021/07/21 04:54:03;;;;;;;15.93;10.57;;;17.00;99.90;;;;;;5032308;28;20672;-51
2021/07/21 04:56:30;;;;;;;12.60;9.63;;;17.00;99.90;;;;;;5037825;28;20318;-51
2021/07/21 04:58:57;;;;;;;14.77;9.90;;;17.10;99.90;;;;;;5037537;28;20200;-51
2021/07/21 05:01:24;;;;;;;17.70;11.10;;;17.10;99.90;;;;;;5035475;28;20312;-51
2021/07/21 05:03:54;;;;;;;15.17;10.37;;;17.10;99.90;;;;;;5032996;28;21387;-51
2021/07/21 05:06:22;;;;;;;14.00;10.47;;;17.10;82.00;;;;;;5032695;28;20230;-51
2021/07/21 05:08:50;;;;;;;18.37;10.43;;;17.10;84.80;;;;;;5032629;28;20611;-51
2021/07/21 05:11:18;;;;;;;17.40;10.60;;;17.20;97.20;;;;;;5032657;28;20214;-51
2021/07/21 05:13:45;;;;;;;15.07;10.50;;;17.30;99.90;;;;;;5031347;28;20290;-50
2021/07/21 05:16:12;;;;;;;14.47;10.07;;;17.30;99.90;;;;;;5031729;28;20265;-51
2021/07/21 05:18:39;;;;;;;18.30;11.33;;;17.30;99.90;;;;;;5030849;28;20304;-51
2021/07/21 05:21:06;;;;;;;19.50;10.00;;;17.30;99.90;;;;;;5034315;28;20277;-51
2021/07/21 05:23:33;;;;;;;14.20;9.60;;;17.40;14.60;;;;;;5029656;28;20197;-51
2021/07/21 05:26:00;;;;;;;16.77;9.93;;;17.40;30.80;;;;;;5034454;28;20638;-50
2021/07/21 05:28:28;;;;;;;13.77;10.03;;;17.50;10.50;;;;;;5034193;28;20263;-51
2021/07/21 05:30:55;;;;;;;14.07;9.07;;;17.60;1.00;;;;;;5032368;28;20299;-51
2021/07/21 05:33:21;;;;;;;13.53;9.60;;;17.70;1.00;;;;;;5033437;28;20297;-51
2021/07/21 05:35:49;;;;;;;12.77;9.73;;;17.80;1.00;;;;;;5033965;28;20334;-51
2021/07/21 05:38:16;;;;;;;12.70;9.70;;;18.00;1.00;;;;;;5031560;28;20250;-51
2021/07/21 05:40:43;;;;;;;14.03;9.70;;;18.10;1.00;;;;;;5033468;28;20647;-51
2021/07/21 05:43:10;;;;;;;13.97;9.43;;;18.20;1.00;;;;;;5033672;28;20228;-51
2021/07/21 05:45:36;;;;;;;11.37;8.83;;;18.20;1.00;;;;;;5033676;28;20656;-50
2021/07/21 05:48:04;;;;;;;12.57;9.40;;;18.20;99.90;;;;;;5031616;28;20224;-51
2021/07/21 05:50:31;;;;;;;12.43;8.67;;;18.30;99.90;;;;;;5031268;28;20327;-51
2021/07/21 05:52:59;;;;;;;16.17;10.23;;;18.40;6.10;;;;;;5031388;28;20657;-51
2021/07/21 05:55:26;;;;;;;12.80;9.20;;;18.20;1.00;;;;;;5030817;28;20362;-51
2021/07/21 05:57:53;;;;;;;16.03;9.03;;;18.20;1.00;;;;;;5031480;28;20574;-48
2021/07/21 06:00:19;;;;;;;13.33;9.60;;;18.30;36.80;;;;;;5026381;28;20254;-49
2021/07/21 06:02:46;;;;;;;15.57;10.37;;;18.30;99.90;;;;;;5030849;28;20275;-49
2021/07/21 06:05:13;;;;;;;14.87;10.37;;;18.30;99.90;;;;;;5033539;28;20282;-49
2021/07/21 06:07:40;;;;;;;13.57;9.37;;;18.40;1.00;;;;;;5032808;28;20283;-50
2021/07/21 06:10:07;;;;;;;14.73;9.47;;;18.40;1.00;;;;;;5032990;28;20301;-49
2021/07/21 06:12:34;;;;;;;14.90;9.67;;;18.40;99.90;;;;;;5029393;28;20295;-49
2021/07/21 06:15:03;;;;;;;11.53;8.80;;;18.40;99.90;;;;;;5029765;28;20228;-52
2021/07/21 06:17:30;;;;;;;13.40;8.70;;;18.50;1.00;;;;;;5029663;28;20221;-49
2021/07/21 06:19:57;;;;;;;12.17;8.87;;;18.60;1.00;;;;;;5032185;28;20304;-50
2021/07/21 06:22:24;;;;;;;11.33;9.03;;;18.60;1.00;;;;;;5029998;28;20310;-50
2021/07/21 06:24:51;;;;;;;12.57;9.27;;;18.70;1.00;;;;;;5030851;28;20556;-49
2021/07/21 06:27:18;;;;;;;14.87;8.97;;;18.70;1.00;;;;;;5030878;28;20296;-49
2021/07/21 06:29:45;;;;;;;13.53;8.67;;;18.80;99.90;;;;;;5033890;28;20271;-49
2021/07/21 06:32:12;;;;;;;15.37;8.10;;;18.80;1.00;;;;;;5033095;28;20744;-49
2021/07/21 06:34:39;;;;;;;10.53;7.63;;;18.70;1.00;;;;;;5037077;28;20670;-50
2021/07/21 06:37:11;;;;;;;10.90;8.13;;;18.90;1.00;;;;;;5033055;28;21008;-49
2021/07/21 06:39:37;;;;;;;11.30;8.07;;;19.00;99.90;;;;;;5035948;28;20296;-50
2021/07/21 06:42:04;;;;;;;14.23;7.73;;;19.00;1.00;;;;;;5038855;28;20737;-49
2021/07/21 06:44:31;;;;;;;9.07;7.37;;;18.90;1.00;;;;;;5041760;28;20294;-50
2021/07/21 06:46:58;;;;;;;11.17;7.30;;;19.00;1.00;;;;;;5033918;28;20310;-49
2021/07/21 06:49:24;;;;;;;12.03;8.13;;;19.10;97.70;;;;;;5037565;28;20194;-50
2021/07/21 06:51:51;;;;;;;11.17;7.23;;;19.30;1.00;;;;;;5039103;28;20213;-50
2021/07/21 06:54:18;;;;;;;12.63;7.73;;;19.60;99.90;;;;;;5034745;28;20264;-50
2021/07/21 06:56:45;;;;;;;15.43;7.73;;;19.70;99.90;;;;;;5037195;28;20373;-49
2021/07/21 06:59:12;;;;;;;13.30;6.87;;;19.90;1.00;;;;;;5034966;28;20581;-49
2021/07/21 07:01:38;;;;;;;13.17;7.27;;;20.10;1.00;;;;;;5027455;28;20342;-49
2021/07/21 07:04:06;;;;;;;8.63;7.10;;;20.30;1.00;;;;;;5033206;28;20520;-50
2021/07/21 07:06:34;;;;;;;9.47;6.93;;;20.30;1.00;;;;;;5035541;28;20292;-49
2021/07/21 07:09:01;;;;;;;9.00;7.10;;;20.30;1.00;;;;;;5030777;28;20198;-50
2021/07/21 07:11:27;;;;;;;10.37;7.10;;;20.60;99.90;;;;;;5038313;28;20233;-49
2021/07/21 07:13:54;;;;;;;10.93;7.70;;;20.60;99.90;;;;;;5031815;28;20299;-49
2021/07/21 07:16:21;;;;;;;10.60;7.37;;;20.70;99.90;;;;;;5033919;28;20204;-49
2021/07/21 07:18:48;;;;;;;9.17;6.13;;;20.60;1.00;;;;;;5035213;28;20827;-50
2021/07/21 07:21:15;;;;;;;10.43;6.60;;;21.10;1.00;;;;;;5036429;28;20261;-50
2021/07/21 07:23:42;;;;;;;11.67;6.77;;;21.50;1.00;;;;;;5027376;28;20687;-49
2021/07/21 07:26:09;;;;;;;9.90;6.70;;;21.60;99.90;;;;;;5032960;28;20224;-56
2021/07/21 07:28:35;;;;;;;9.80;6.33;;;21.70;1.00;;;;;;5031621;28;20607;-56
2021/07/21 07:31:02;;;;;;;6.83;5.37;;;21.70;1.00;;;;;;5033535;28;20298;-56
2021/07/21 07:33:29;;;;;;;12.37;6.10;;;21.70;99.90;;;;;;5034033;28;20765;-57
2021/07/21 07:35:56;;;;;;;10.27;6.47;;;21.70;1.00;;;;;;5034193;28;20670;-57
2021/07/21 07:38:23;;;;;;;11.93;6.13;;;22.00;1.00;;;;;;5025720;28;20683;-57
2021/07/21 07:40:52;;;;;;;19.43;7.87;;;22.20;1.00;;;;;;5032866;28;20294;-57
2021/07/21 07:43:19;;;;;;;11.47;5.67;;;22.20;49.20;;;;;;5032118;28;20323;-56
2021/07/21 07:45:46;;;;;;;9.57;5.90;;;22.20;1.00;;;;;;5033295;28;20285;-56
2021/07/21 07:48:13;;;;;;;7.10;5.37;;;22.30;99.90;;;;;;5032789;28;20763;-56
2021/07/21 07:50:40;;;;;;;6.63;5.00;;;22.40;1.00;;;;;;5027802;28;20299;-57
2021/07/21 07:53:07;;;;;;;6.93;5.20;;;22.70;1.00;;;;;;5029701;28;20292;-56
2021/07/21 07:55:40;;;;;;;7.93;4.33;;;22.80;1.00;;;;;;5031301;28;20324;-56
2021/07/21 07:58:06;;;;;;;8.00;5.23;;;22.90;1.00;;;;;;5034492;28;20583;-56
2021/07/21 08:00:33;;;;;;;8.67;4.87;;;23.00;1.00;;;;;;5036013;28;20242;-56
2021/07/21 08:03:00;;;;;;;8.17;4.37;;;23.00;1.00;;;;;;5035696;28;20570;-58
2021/07/21 08:05:27;;;;;;;6.33;4.27;;;23.30;1.00;;;;;;5031529;28;20295;-56
2021/07/21 08:07:56;;;;;;;8.47;4.03;;;23.30;99.90;;;;;;5031483;28;20275;-56
2021/07/21 08:10:24;;;;;;;7.77;4.30;;;23.50;99.90;;;;;;5033371;28;20208;-56
2021/07/21 08:12:50;;;;;;;7.03;3.93;;;23.50;1.00;;;;;;5032945;28;20236;-56
2021/07/21 08:15:17;;;;;;;7.87;5.07;;;23.80;78.50;;;;;;5035356;28;20622;-56
2021/07/21 08:17:44;;;;;;;6.60;4.80;;;23.80;1.00;;;;;;5033046;28;20233;-57
2021/07/21 08:20:11;;;;;;;5.57;4.00;;;23.70;99.90;;;;;;5030524;28;20294;-57
2021/07/21 08:22:39;;;;;;;7.23;5.17;;;23.70;99.90;;;;;;5027009;28;20355;-56
2021/07/21 08:25:17;;;;;;;6.40;4.10;;;23.50;99.90;;;;;;5028751;28;20261;-56
2021/07/21 08:27:44;;;;;;;5.43;4.03;;;23.50;99.90;;;;;;5031204;28;20311;-56
2021/07/21 08:30:12;;;;;;;7.90;4.07;;;23.90;99.90;;;;;;5033136;28;20671;-56
2021/07/21 08:32:41;;;;;;;6.07;4.03;;;24.00;1.00;;;;;;5027106;28;20298;-56
2021/07/21 08:35:09;;;;;;;8.50;4.27;;;24.10;1.00;;;;;;5036308;28;20284;-56
2021/07/21 08:37:36;;;;;;;7.67;4.77;;;23.90;1.00;;;;;;5032053;28;20302;-56
2021/07/21 08:40:05;;;;;;;7.17;4.60;;;23.90;1.00;;;;;;5032164;28;20309;-56
2021/07/21 08:42:33;;;;;;;6.80;4.30;;;24.20;1.00;;;;;;5030956;28;20277;-56
2021/07/21 08:45:00;;;;;;;11.23;5.20;;;24.50;1.00;;;;;;5031302;28;20263;-56
2021/07/21 08:47:28;;;;;;;6.03;4.40;;;24.40;1.00;;;;;;5030698;28;20291;-57
2021/07/21 08:49:56;;;;;;;6.23;4.10;;;24.10;1.00;;;;;;5034135;28;20301;-59
2021/07/21 08:52:24;;;;;;;6.47;4.17;;;24.40;12.70;;;;;;5036531;28;20238;-56
2021/07/21 08:54:58;;;;;;;6.67;4.40;;;24.80;1.00;;;;;;5025505;28;20731;-57
2021/07/21 08:57:28;;;;;;;8.33;4.97;;;25.00;1.00;;;;;;5027949;28;20572;-57
2021/07/21 08:59:57;;;;;;;6.87;4.57;;;25.00;1.00;;;;;;5031384;28;20206;-56
2021/07/21 09:02:24;;;;;;;6.57;5.00;;;25.00;1.00;;;;;;5033741;28;20249;-56
2021/07/21 09:04:52;;;;;;;6.87;4.33;;;24.70;1.00;;;;;;5035638;28;20224;-57
2021/07/21 09:07:20;;;;;;;7.23;4.50;;;24.60;1.00;;;;;;5030297;28;20558;-56
2021/07/21 09:10:05;;;;;;;8.17;4.93;;;24.90;1.00;;;;;;5030459;28;20516;-56
2021/07/21 09:12:32;;;;;;;9.03;4.20;;;25.20;1.00;;;;;;5030205;28;20306;-56
2021/07/21 09:14:59;;;;;;;7.27;4.37;;;25.40;1.00;;;;;;5027727;28;20586;-57
2021/07/21 09:17:27;;;;;;;9.13;4.57;;;25.30;1.00;;;;;;5029777;28;20207;-56
2021/07/21 09:19:54;;;;;;;8.07;4.07;;;25.30;99.90;;;;;;5034454;28;20352;-56
2021/07/21 09:22:24;;;;;;;7.57;4.10;;;24.90;1.00;;;;;;5036981;28;20222;-57
2021/07/21 09:25:11;;;;;;;7.43;4.23;;;25.20;1.00;;;;;;5031649;28;21150;-57
2021/07/21 09:27:39;;;;;;;7.30;4.17;;;25.30;1.00;;;;;;5031182;28;20635;-50
2021/07/21 09:30:08;;;;;;;7.90;4.40;;;25.30;99.90;;;;;;5030940;28;20311;-50
2021/07/21 09:32:51;;;;;;;8.43;4.73;;;25.30;1.00;;;;;;5031913;28;20320;-50
2021/07/21 09:35:18;;;;;;;7.90;4.80;;;25.00;1.00;;;;;;5028974;28;20216;-50
2021/07/21 09:37:46;;;;;;;7.33;4.27;;;25.10;1.00;;;;;;5029476;28;20518;-50
2021/07/21 09:40:14;;;;;;;5.13;3.40;;;25.40;99.90;;;;;;5028101;28;20570;-50
2021/07/21 09:42:41;;;;;;;5.83;4.13;;;25.70;1.00;;;;;;5031963;28;20212;-50
2021/07/21 09:45:12;;;;;;;8.10;5.30;;;25.70;99.90;;;;;;5030463;28;20592;-50
2021/07/21 09:47:48;;;;;;;6.20;4.03;;;25.00;99.90;;;;;;5034104;28;20328;-50
2021/07/21 09:50:30;;;;;;;5.37;4.00;;;25.30;1.00;;;;;;5036028;28;20220;-50
2021/07/21 09:53:06;;;;;;;5.47;4.13;;;25.30;99.90;;;;;;5031015;28;20976;-50
2021/07/21 09:55:36;;;;;;;9.45;4.60;;;25.20;1.00;;;;;;5030090;28;20464;-48
2021/07/21 09:58:06;;;;;;;7.47;4.20;;;25.30;1.00;;;;;;5030512;28;20296;-48
2021/07/21 10:00:38;;;;;;;5.83;3.93;;;25.80;99.90;;;;;;5028801;28;20813;-48
2021/07/21 10:03:12;;;;;;;7.00;4.07;;;26.20;99.90;;;;;;5030937;28;20233;-49
2021/07/21 10:05:59;;;;;;;7.87;4.07;;;25.80;99.90;;;;;;5034444;28;20864;-49
2021/07/21 10:08:26;;;;;;;11.00;3.97;;;26.80;99.90;;;;;;5035561;28;20198;-49
2021/07/21 10:10:54;;;;;;;7.07;3.93;;;26.30;99.90;;;;;;5037841;28;20237;-49
2021/07/21 10:13:22;;;;;;;5.33;4.20;;;26.20;99.90;;;;;;5035101;28;20287;-48
2021/07/21 10:15:54;;;;;;;6.77;4.03;;;26.30;99.90;;;;;;5037477;28;20239;-49
2021/07/21 10:18:23;;;;;;;7.13;4.50;;;26.20;99.90;;;;;;5036135;28;20291;-48
2021/07/21 10:20:50;;;;;;;8.30;4.67;;;26.80;99.90;;;;;;5035293;28;20281;-48
2021/07/21 10:23:18;;;;;;;5.93;4.10;;;26.60;99.90;;;;;;5032931;28;20228;-49
2021/07/21 10:25:45;;;;;;;7.93;5.07;;;26.50;99.90;;;;;;5035160;28;20287;-48
2021/07/21 10:28:12;;;;;;;7.20;5.00;;;26.40;99.90;;;;;;5035879;28;20652;-48
2021/07/21 10:30:41;;;;;;;8.03;6.07;;;26.10;99.90;;;;;;5037424;28;20298;-49
2021/07/21 10:33:10;;;;;;;5.93;4.57;;;25.80;99.90;;;;;;5034400;28;20207;-49
2021/07/21 10:35:37;;;;;;;6.33;4.40;;;26.10;99.90;;;;;;5033904;28;20727;-49
2021/07/21 10:38:04;;;;;;;6.43;4.60;;;26.20;99.90;;;;;;5036657;28;20391;-48
2021/07/21 10:40:32;;;;;;;6.27;4.17;;;26.20;99.90;;;;;;5034533;28;20521;-48
2021/07/21 10:43:01;;;;;;;7.23;4.80;;;26.60;99.90;;;;;;5036336;28;20292;-48
2021/07/21 10:45:35;;;;;;;8.10;5.13;;;26.90;99.90;;;;;;5033307;28;20274;-48
2021/07/21 10:59:18;;;;;;;8.43;4.13;;;26.90;99.90;;;;;;5034209;28;20274;-48
2021/07/21 11:01:58;;;;;;;6.33;4.83;;;26.80;99.90;;;;;;5037885;28;20207;-48
2021/07/21 11:04:41;;;;;;;6.57;4.67;;;26.60;99.90;;;;;;5036720;28;20208;-48
2021/07/21 11:07:08;;;;;;;7.33;5.60;;;26.30;99.90;;;;;;5035719;28;20673;-48
2021/07/21 11:09:38;;;;;;;7.20;4.63;;;26.20;99.90;;;;;;5036041;28;20206;-49
2021/07/21 11:12:05;;;;;;;5.50;4.20;;;26.30;99.90;;;;;;5035999;28;20246;-48
2021/07/21 11:14:35;;;;;;;6.27;4.30;;;26.80;99.90;;;;;;5032583;28;20291;-48
2021/07/21 11:17:01;;;;;;;6.30;3.97;;;26.50;99.90;;;;;;5035107;28;20201;-48
2021/07/21 11:19:30;;;;;;;8.40;4.77;;;26.80;99.90;;;;;;5038854;28;20200;-48
2021/07/21 11:21:58;;;;;;;6.33;4.33;;;27.10;99.90;;;;;;5030980;28;20224;-48
2021/07/21 11:24:27;;;;;;;7.80;4.87;;;28.00;99.90;;;;;;5035017;28;20231;-48
2021/07/21 11:26:55;;;;;;;6.17;4.60;;;28.00;99.90;;;;;;5040419;28;20286;-48
2021/07/21 11:29:29;;;;;;;8.90;4.80;;;27.90;27.30;;;;;;5034325;28;20811;-49
2021/07/21 11:31:58;;;;;;;5.97;3.87;;;28.40;1.00;;;;;;5035317;28;20317;-48
2021/07/21 11:34:36;;;;;;;6.30;4.10;;;28.80;1.30;;;;;;5040510;28;20495;-48
2021/07/21 11:37:15;;;;;;;7.83;4.27;;;29.50;1.00;;;;;;5039414;28;20263;-48
2021/07/21 11:39:56;;;;;;;7.97;4.20;;;30.70;1.00;;;;;;5037920;28;20207;-48
2021/07/21 11:42:23;;;;;;;6.57;4.33;;;30.30;1.00;;;;;;5035038;28;20248;-48
2021/07/21 11:44:51;;;;;;;8.17;4.67;;;29.20;1.00;;;;;;5033624;28;20200;-47
2021/07/21 11:47:18;;;;;;;9.23;4.30;;;29.30;1.00;;;;;;5030132;28;20292;-47
2021/07/21 11:49:51;;;;;;;8.03;4.67;;;29.00;1.00;;;;;;5032546;28;20267;-48
2021/07/21 11:52:19;;;;;;;5.87;4.50;;;29.50;1.00;;;;;;5035446;28;20281;-48
2021/07/21 11:54:47;;;;;;;6.17;4.23;;;28.90;1.00;;;;;;5031565;28;20240;-47
2021/07/21 11:57:15;;;;;;;6.93;4.77;;;30.40;1.00;;;;;;5038836;28;20298;-48
2021/07/21 11:59:44;;;;;;;5.23;4.10;;;30.50;1.00;;;;;;5039764;28;20200;-47
2021/07/21 12:02:16;;;;;;;7.57;5.10;;;30.80;1.00;;;;;;5035693;28;20351;-48
2021/07/21 12:04:45;;;;;;;8.20;4.60;;;29.90;1.00;;;;;;5040177;28;20208;-48
2021/07/21 12:07:15;;;;;;;8.23;4.40;;;30.30;1.00;;;;;;5043130;28;21295;-47
2021/07/21 12:09:46;;;;;;;6.67;5.00;;;29.50;1.00;;;;;;5044782;28;20208;-48
2021/07/21 12:12:16;;;;;;;7.87;5.87;;;29.20;1.00;;;;;;5044456;28;20231;-47
2021/07/21 12:14:49;;;;;;;8.20;5.17;;;28.20;1.00;;;;;;5042441;28;20646;-47
2021/07/21 12:17:17;;;;;;;7.07;4.93;;;28.90;1.00;;;;;;5042359;28;20681;-47
2021/07/21 12:19:56;;;;;;;8.27;4.40;;;28.40;1.00;;;;;;5041721;28;20246;-47
2021/07/21 12:22:24;;;;;;;9.00;5.23;;;29.30;1.00;;;;;;5042587;28;20730;-47
2021/07/21 12:24:57;;;;;;;6.70;4.77;;;30.40;1.00;;;;;;5038522;28;20228;-48
2021/07/21 12:27:31;;;;;;;7.73;5.20;;;31.20;1.00;;;;;;5039851;28;20632;-50
2021/07/21 12:30:09;;;;;;;6.83;4.73;;;30.30;1.00;;;;;;5040619;28;20230;-48
2021/07/21 12:32:36;;;;;;;7.93;4.83;;;29.70;1.00;;;;;;5037976;28;20318;-48
2021/07/21 12:35:05;;;;;;;6.27;4.30;;;29.20;1.00;;;;;;5039810;28;20261;-47
2021/07/21 12:37:39;;;;;;;7.13;5.43;;;30.60;1.00;;;;;;5038203;28;20236;-48
2021/07/21 12:40:18;;;;;;;6.20;4.60;;;29.10;1.00;;;;;;5039454;28;20218;-48
2021/07/21 12:42:46;;;;;;;8.75;5.13;;;28.50;1.00;;;;;;5038098;28;20895;-48
2021/07/21 12:45:18;;;;;;;6.97;5.25;;;30.10;1.00;;;;;;5041693;28;20354;-48
2021/07/21 12:47:53;;;;;;;8.48;4.45;;;29.90;1.00;;;;;;5039870;28;20299;-48
2021/07/21 12:50:34;;;;;;;5.67;4.30;;;29.20;1.00;;;;;;5038622;28;20719;-48
2021/07/21 12:53:04;;;;;;;6.10;4.13;;;30.20;1.00;;;;;;5037278;28;21176;-47
2021/07/21 12:55:42;;;;;;;7.23;4.57;;;30.40;1.00;;;;;;5038722;28;20366;-48
2021/07/21 12:58:14;;;;;;;6.40;4.90;;;29.50;1.00;;;;;;5040516;28;20692;-48
2021/07/21 13:00:48;;;;;;;7.97;4.43;;;28.70;1.00;;;;;;5038794;28;20232;-48
2021/07/21 13:03:18;;;;;;;6.30;4.40;;;29.00;1.00;;;;;;5038911;28;20697;-50
2021/07/21 13:05:54;;;;;;;7.70;5.18;;;29.20;1.00;;;;;;5039210;28;20199;-48
2021/07/21 13:08:23;;;;;;;7.05;4.60;;;28.40;1.00;;;;;;5034120;28;20762;-48
2021/07/21 13:11:13;;;;;;;8.48;5.05;;;28.20;87.00;;;;;;5038949;28;20298;-48